METAR Data
IDs: Format: Raw Decoded Include TAF

Data at: 0245 UTC 25 Feb 2021

VOCB 250230Z VRB03KT 2500 BR FEW012 23/18 Q1015 NOSIG